Time;durP1;ratioP1;P1;durP2;ratioP2;P2;SDS_P1;SDS_P2;PMS_P1;PMS_P2;Temp;Humidity;BMP_temperature;BMP_pressure;BME280_temperature;BME280_humidity;BME280_pressure;Samples;Min_cycle;Max_cycle;Signal;HPM_P1;HPM_P2
2023/01/12 00:01:39;;;;;;;5.40;1.50;;;9.30;92.10;;;9.80;57.01;99078.00;4951861;28;122823;-71
2023/01/12 00:04:07;;;;;;;3.33;1.63;;;9.30;92.00;;;9.82;57.03;99084.03;4956224;28;114190;-71
2023/01/12 00:06:34;;;;;;;4.43;1.50;;;9.30;92.00;;;9.84;57.09;99078.25;4966698;28;113918;-72
2023/01/12 00:09:05;;;;;;;4.50;1.67;;;9.40;92.10;;;9.86;56.94;99085.09;4951268;28;122955;-72
2023/01/12 00:11:31;;;;;;;3.50;1.27;;;9.40;92.10;;;9.89;57.08;99083.69;4964221;28;124193;-73
2023/01/12 00:13:58;;;;;;;2.00;1.40;;;9.50;92.10;;;9.92;56.82;99085.84;4966096;28;114245;-72
2023/01/12 00:16:36;;;;;;;3.90;1.50;;;9.60;92.10;;;9.94;56.63;99089.13;4966169;28;113757;-72
2023/01/12 00:19:15;;;;;;;3.73;1.43;;;9.50;92.00;;;9.96;56.56;99086.84;4968079;28;124086;-72
2023/01/12 00:24:19;;;;;;;5.70;1.83;;;9.50;91.90;;;9.92;56.49;99072.03;4963907;28;114907;-73
2023/01/12 00:26:48;;;;;;;2.50;1.30;;;9.40;91.80;;;9.89;56.72;99072.63;4964924;28;113971;-73
2023/01/12 00:29:16;;;;;;;5.03;1.50;;;9.40;91.80;;;9.85;56.77;99057.78;4965857;28;124041;-71
2023/01/12 00:31:43;;;;;;;4.23;1.90;;;9.40;91.80;;;9.81;57.03;99071.38;4966305;28;124438;-72
2023/01/12 00:34:10;;;;;;;2.23;1.30;;;9.40;91.80;;;9.76;56.58;99078.94;4969316;28;114144;-72
2023/01/12 00:36:37;;;;;;;5.47;1.53;;;9.50;91.80;;;9.70;56.93;99076.25;4966575;28;113965;-72
2023/01/12 00:39:04;;;;;;;3.90;1.40;;;9.30;91.70;;;9.64;56.99;99085.69;4969110;28;123825;-72
2023/01/12 00:47:01;;;;;;;4.87;1.77;;;9.20;91.80;;;9.55;57.08;99075.66;4968982;28;115446;-72
2023/01/12 00:49:27;;;;;;;4.50;1.60;;;9.10;91.80;;;9.55;57.18;99070.94;4970639;28;124393;-71
2023/01/12 00:51:54;;;;;;;2.73;1.70;;;9.10;91.80;;;9.55;57.26;99065.44;4967901;28;122981;-73
2023/01/12 00:54:20;;;;;;;7.77;2.10;;;9.10;91.80;;;9.54;57.45;99062.97;4965215;28;114853;-72
2023/01/12 00:56:47;;;;;;;5.50;2.07;;;9.10;91.80;;;9.53;57.24;99051.13;4968376;28;114045;-72
2023/01/12 00:59:13;;;;;;;3.20;1.60;;;9.10;91.80;;;9.53;57.05;99056.63;4968038;28;124044;-72
2023/01/12 01:01:40;;;;;;;8.80;2.43;;;9.30;91.90;;;9.55;57.20;99061.88;4996939;28;122883;-72
2023/01/12 01:04:06;;;;;;;4.90;1.40;;;9.10;91.80;;;9.56;57.00;99046.94;4967452;28;113877;-72
2023/01/12 01:06:37;;;;;;;3.43;1.37;;;9.10;91.90;;;9.59;57.35;99054.63;4968130;28;113844;-72
2023/01/12 01:09:05;;;;;;;4.93;1.97;;;9.10;91.90;;;9.60;57.04;99054.31;4999726;28;124019;-73
2023/01/12 01:11:32;;;;;;;5.50;1.77;;;9.20;91.90;;;9.60;57.24;99054.31;4952477;28;122492;-73
2023/01/12 01:13:59;;;;;;;6.77;1.63;;;9.10;91.80;;;9.62;57.28;99076.91;4969035;28;113673;-74
2023/01/12 01:16:26;;;;;;;11.30;2.13;;;9.40;92.00;;;9.62;56.91;99056.78;4962485;28;113917;-72
2023/01/12 01:18:53;;;;;;;6.40;1.90;;;9.20;91.90;;;9.63;57.37;99050.16;4966303;28;124164;-72
2023/01/12 01:21:19;;;;;;;5.40;1.80;;;9.20;91.90;;;9.66;57.14;99050.34;4968945;28;125486;-72
2023/01/12 01:23:46;;;;;;;5.10;1.50;;;9.20;91.90;;;9.70;57.36;99050.59;4970099;28;113370;-73
2023/01/12 01:26:17;;;;;;;1.50;1.30;;;9.30;91.90;;;9.73;56.76;99059.09;4975724;28;113521;-73
2023/01/12 01:28:44;;;;;;;4.60;1.60;;;9.30;91.90;;;9.77;56.91;99055.72;5004788;28;124197;-73
2023/01/12 01:31:22;;;;;;;2.60;1.33;;;9.30;91.90;;;9.80;56.67;99066.16;4971195;28;123780;-73
2023/01/12 01:33:49;;;;;;;6.73;1.67;;;9.30;91.80;;;9.80;57.04;99063.38;4972487;28;115120;-73
2023/01/12 01:36:17;;;;;;;3.00;1.70;;;9.30;91.80;;;9.78;56.84;99060.94;4971220;28;114981;-74
2023/01/12 01:38:46;;;;;;;3.00;1.20;;;9.30;91.70;;;9.79;56.90;99065.34;4952875;28;123273;-73
2023/01/12 01:41:31;;;;;;;3.30;1.40;;;9.30;91.70;;;9.80;56.40;99069.72;4968394;28;123769;-72
2023/01/12 01:44:00;;;;;;;2.90;1.60;;;9.30;91.60;;;9.78;56.63;99068.38;4966043;28;113505;-72
2023/01/12 01:46:28;;;;;;;4.50;1.70;;;9.30;91.80;;;9.78;56.41;99063.72;4966405;28;114067;-72
2023/01/12 01:48:57;;;;;;;3.67;1.63;;;9.30;91.60;;;9.81;56.34;99067.81;4966224;28;123963;-73
2023/01/12 01:51:24;;;;;;;5.10;1.53;;;9.40;91.60;;;9.83;56.69;99071.06;4966651;28;123560;-73
2023/01/12 01:53:50;;;;;;;7.30;2.07;;;9.40;91.60;;;9.84;56.62;99073.53;4969631;28;114741;-72
2023/01/12 01:56:24;;;;;;;4.10;1.60;;;9.50;91.60;;;9.89;56.24;99080.91;4971356;28;114063;-72
2023/01/12 01:59:05;;;;;;;4.40;1.47;;;9.40;91.60;;;9.90;56.52;99077.03;4969074;28;124470;-73
2023/01/12 02:01:32;;;;;;;4.90;1.90;;;9.40;91.60;;;9.91;56.38;99078.66;4965069;28;123063;-72
2023/01/12 02:03:59;;;;;;;5.90;2.00;;;9.50;91.60;;;9.93;56.24;99070.91;4952405;28;113564;-73
2023/01/12 02:06:27;;;;;;;5.40;1.87;;;9.50;91.60;;;9.95;56.44;99079.72;4966634;28;114070;-73
2023/01/12 02:09:17;;;;;;;2.50;1.67;;;9.50;91.50;;;9.97;56.43;99080.22;4968413;28;124008;-73
2023/01/12 02:17:32;;;;;;;5.13;1.60;;;9.50;91.50;;;10.02;56.32;99063.59;4959187;28;115096;-72
2023/01/12 02:20:23;;;;;;;3.73;1.40;;;7.90;90.80;;;10.02;56.28;99047.03;4968961;28;124098;-73
2023/01/12 02:23:22;;;;;;;4.60;1.80;;;9.60;91.50;;;10.05;56.17;99040.91;4969035;28;123954;-72
2023/01/12 02:26:28;;;;;;;3.70;1.70;;;9.60;91.40;;;10.06;56.22;99041.72;4961561;28;115351;-72
2023/01/12 02:29:32;;;;;;;8.80;1.93;;;9.60;91.40;;;10.05;55.72;99027.09;5003178;28;114371;-73
2023/01/12 02:32:24;;;;;;;4.40;1.90;;;9.60;91.30;;;10.04;56.01;99028.19;4968467;28;124497;-73
2023/01/12 02:35:11;;;;;;;5.60;1.80;;;9.60;91.30;;;10.03;56.03;99034.84;4969186;28;123911;-72
2023/01/12 02:38:16;;;;;;;4.10;1.50;;;9.60;91.30;;;10.04;55.86;99021.84;4967800;28;112950;-72
2023/01/12 02:42:39;;;;;;;6.37;1.80;;;9.60;91.30;;;10.04;55.53;99017.16;4967511;28;114289;-72
2023/01/12 02:44:27;;;;;;;5.13;1.87;;;9.60;91.20;;;10.02;55.97;99005.63;4972365;28;124192;-74
2023/01/12 02:47:36;;;;;;;3.73;1.53;;;9.60;91.20;;;10.05;56.12;99009.72;4965898;28;123841;-73
2023/01/12 02:50:49;;;;;;;3.00;1.57;;;9.60;91.20;;;10.03;55.75;99010.00;4951380;28;114215;-72
2023/01/12 02:53:37;;;;;;;8.53;1.83;;;9.60;91.20;;;10.05;56.08;99002.25;4977798;28;114607;-73
2023/01/12 02:56:06;;;;;;;3.27;1.43;;;9.60;91.50;;;10.09;56.09;98994.16;4972663;28;123821;-78
2023/01/12 02:58:39;;;;;;;6.10;1.40;;;9.60;91.20;;;10.11;55.51;98987.22;4972752;28;121528;-77
2023/01/12 03:01:10;;;;;;;4.97;1.40;;;9.60;91.20;;;10.15;55.52;98977.22;4970764;28;113674;-73
2023/01/12 03:03:38;;;;;;;3.33;1.60;;;9.70;91.20;;;10.15;55.44;98971.69;4973128;28;114094;-76
2023/01/12 03:06:06;;;;;;;3.90;1.37;;;9.70;91.20;;;10.15;55.70;98985.50;4961565;28;124120;-74
2023/01/12 03:08:37;;;;;;;3.20;1.40;;;9.70;91.10;;;10.15;55.39;98970.84;4958315;28;122972;-73
2023/01/12 03:11:19;;;;;;;4.50;1.53;;;9.70;91.10;;;10.12;55.34;98963.19;4968497;28;114146;-72
2023/01/12 03:13:54;;;;;;;8.00;2.10;;;9.70;91.10;;;10.11;55.34;98978.94;4967614;28;113948;-72
2023/01/12 03:16:27;;;;;;;4.30;1.53;;;9.60;91.10;;;10.08;55.24;98989.78;4970997;28;124216;-73
2023/01/12 03:19:08;;;;;;;4.50;1.60;;;9.60;91.10;;;10.05;55.38;98996.72;4963549;28;123568;-73
2023/01/12 03:21:46;;;;;;;3.97;1.53;;;9.60;91.10;;;10.04;55.36;98995.06;4966301;28;115329;-72
2023/01/12 03:24:26;;;;;;;2.50;1.30;;;9.60;91.10;;;10.03;55.84;98990.69;4967992;28;115022;-72
2023/01/12 03:27:03;;;;;;;5.53;1.60;;;9.60;91.10;;;10.01;55.45;98995.69;4966832;28;123360;-73
2023/01/12 03:29:37;;;;;;;6.83;1.97;;;9.70;91.20;;;10.01;55.86;98981.06;4940763;28;123105;-72
2023/01/12 03:32:05;;;;;;;5.93;2.20;;;9.70;91.20;;;10.00;55.99;98990.47;4964407;28;114083;-73
2023/01/12 03:34:33;;;;;;;7.10;2.13;;;9.50;91.10;;;10.00;55.73;98980.25;4950540;28;114097;-72
2023/01/12 03:37:22;;;;;;;6.03;1.80;;;9.60;91.20;;;10.02;55.85;98983.53;4968339;28;124726;-73
2023/01/12 03:40:07;;;;;;;2.70;1.40;;;9.50;91.50;;;10.02;55.75;98980.78;4954302;28;122337;-73
2023/01/12 03:43:01;;;;;;;6.73;1.93;;;9.60;91.20;;;10.01;55.77;98979.13;4981333;28;113471;-73
2023/01/12 03:45:44;;;;;;;3.23;1.80;;;10.50;91.10;;;10.02;55.75;98991.81;4970965;28;113774;-72
2023/01/12 03:48:35;;;;;;;3.97;1.70;;;9.60;91.20;;;9.99;55.76;98988.81;4970558;28;123941;-72
2023/01/12 03:51:19;;;;;;;8.27;2.40;;;9.50;91.10;;;9.97;55.92;98978.09;4960320;28;123584;-73
2023/01/12 03:53:48;;;;;;;4.73;1.80;;;9.50;91.10;;;9.96;55.80;98977.25;4965161;28;114264;-72
2023/01/12 03:56:18;;;;;;;7.80;2.33;;;9.50;91.10;;;9.99;56.04;98977.78;4953952;28;113139;-72
2023/01/12 03:58:46;;;;;;;5.63;1.70;;;9.50;91.20;;;9.98;55.94;98989.97;4933050;28;125182;-72
2023/01/12 04:01:13;;;;;;;3.03;1.50;;;9.50;91.20;;;9.97;55.92;98980.88;4910222;28;122693;-73
2023/01/12 04:03:39;;;;;;;10.10;2.10;;;9.50;91.20;;;9.96;55.99;98988.31;4923854;28;114000;-72
2023/01/12 04:06:07;;;;;;;4.63;1.70;;;9.50;91.20;;;9.97;56.16;98978.09;4947266;28;113916;-73
2023/01/12 04:08:54;;;;;;;8.10;1.77;;;10.30;91.10;;;9.97;56.39;98983.63;4949523;28;124116;-72
2023/01/12 04:14:05;;;;;;;6.17;1.80;;;9.50;91.20;;;9.92;55.85;98978.19;4938608;28;116321;-72
2023/01/12 04:16:32;;;;;;;4.70;2.03;;;9.50;91.20;;;9.91;56.23;98974.63;4951791;28;114703;-72
2023/01/12 04:18:58;;;;;;;5.60;1.87;;;9.50;91.20;;;9.90;56.33;98972.97;4924634;28;124488;-73
2023/01/12 04:24:10;;;;;;;4.23;1.77;;;9.40;91.30;;;9.90;56.00;98958.34;4952349;28;114554;-72
2023/01/12 04:26:36;;;;;;;5.23;1.53;;;9.50;91.30;;;9.90;56.34;98955.59;4949394;28;113804;-72
2023/01/12 04:29:02;;;;;;;6.77;2.00;;;9.50;91.40;;;9.93;56.41;98971.53;4949392;28;124030;-72
2023/01/12 04:31:29;;;;;;;9.53;2.80;;;9.50;91.40;;;9.94;56.10;98962.16;4949090;28;123831;-73
2023/01/12 04:33:55;;;;;;;6.20;2.20;;;9.50;91.40;;;9.95;56.30;98966.53;4948754;28;113989;-72
2023/01/12 04:36:22;;;;;;;9.53;2.07;;;9.50;91.40;;;9.98;56.08;98954.88;4951767;28;114015;-72
2023/01/12 04:38:48;;;;;;;5.40;1.70;;;9.50;91.40;;;9.99;56.53;98941.91;4926689;28;124175;-73
2023/01/12 04:41:15;;;;;;;4.53;3.00;;;9.50;91.40;;;10.02;56.32;98941.28;4943463;28;124985;-72
2023/01/12 04:43:41;;;;;;;4.40;1.70;;;9.60;91.40;;;10.06;56.14;98936.81;4954420;28;114341;-72
2023/01/12 04:46:09;;;;;;;6.33;1.87;;;9.60;91.40;;;10.07;56.10;98930.97;4961637;28;114001;-72
2023/01/12 04:48:37;;;;;;;6.57;1.83;;;9.60;91.40;;;10.09;56.41;98925.16;4957317;28;124470;-73
2023/01/12 04:51:04;;;;;;;3.63;1.63;;;9.60;91.40;;;10.10;56.34;98926.78;4937572;28;123713;-73
2023/01/12 04:53:31;;;;;;;4.17;1.90;;;9.60;91.40;;;10.12;56.14;98919.00;4948654;28;114077;-73
2023/01/12 04:56:02;;;;;;;4.97;1.80;;;9.70;91.40;;;10.14;56.29;98906.53;4934712;28;113185;-72
2023/01/12 04:58:29;;;;;;;4.40;1.63;;;9.70;91.40;;;10.14;56.46;98909.28;4948702;28;123609;-73
2023/01/12 05:00:55;;;;;;;7.93;2.50;;;9.70;91.40;;;10.16;56.30;98912.56;4967277;28;123897;-73
2023/01/12 05:03:22;;;;;;;5.20;2.03;;;9.70;91.40;;;10.17;56.27;98908.69;4971419;28;115151;-75
2023/01/12 05:05:49;;;;;;;4.50;1.80;;;9.70;91.40;;;10.18;55.87;98907.56;4971463;28;114815;-73
2023/01/12 05:11:01;;;;;;;5.10;1.57;;;9.70;91.40;;;10.17;56.23;98905.91;4972455;28;124770;-72
2023/01/12 05:13:30;;;;;;;6.77;2.17;;;9.70;91.40;;;10.15;56.33;98910.13;4974081;28;114274;-72
2023/01/12 05:16:09;;;;;;;10.73;2.60;;;9.70;91.40;;;10.14;56.33;98905.72;4970329;28;113840;-73
2023/01/12 05:18:35;;;;;;;7.87;1.90;;;9.70;91.40;;;10.09;56.25;98923.19;4969529;28;124555;-73
2023/01/12 05:21:02;;;;;;;4.97;2.10;;;9.60;91.40;;;10.06;56.46;98925.75;5004055;28;122831;-73
2023/01/12 05:23:29;;;;;;;6.30;2.17;;;9.60;91.40;;;10.06;56.29;98921.06;4970760;28;114191;-72
2023/01/12 05:26:03;;;;;;;9.20;2.03;;;9.60;91.40;;;10.07;56.44;98911.63;4970063;28;114103;-73
2023/01/12 05:28:29;;;;;;;6.40;2.20;;;9.60;91.40;;;10.07;56.21;98906.13;4972543;28;123698;-72
2023/01/12 05:31:07;;;;;;;6.00;2.00;;;9.60;91.40;;;10.07;56.49;98910.81;4969691;28;123754;-73
2023/01/12 05:33:35;;;;;;;7.93;2.20;;;9.60;91.40;;;10.08;56.25;98907.78;4969070;28;114262;-73
2023/01/12 05:36:09;;;;;;;10.43;1.97;;;9.60;91.40;;;10.08;56.06;98907.78;4971462;28;114053;-72
2023/01/12 05:38:36;;;;;;;13.03;2.30;;;9.60;91.30;;;10.04;56.19;98901.22;4952354;28;123845;-73
2023/01/12 05:41:06;;;;;;;10.20;2.57;;;9.60;91.30;;;10.05;56.01;98907.56;4967966;28;123118;-72
2023/01/12 05:43:50;;;;;;;7.53;2.07;;;9.60;91.30;;;10.05;56.15;98897.34;4972961;28;114353;-72
2023/01/12 05:46:26;;;;;;;7.37;1.80;;;10.00;91.20;;;10.06;56.25;98889.88;4973445;28;114912;-72
2023/01/12 05:48:55;;;;;;;7.17;2.13;;;9.60;91.20;;;10.07;56.15;98906.13;4954968;28;123494;-72
2023/01/12 05:51:25;;;;;;;8.77;2.03;;;9.60;91.20;;;10.07;55.69;98911.63;4963506;28;123910;-72
2023/01/12 05:53:52;;;;;;;9.03;2.50;;;9.60;91.20;;;10.07;55.73;98906.13;4982646;28;115193;-71
2023/01/12 05:56:26;;;;;;;9.20;2.33;;;9.70;91.20;;;10.07;56.05;98906.13;4968923;28;114139;-71
2023/01/12 05:58:57;;;;;;;8.87;2.57;;;9.70;91.20;;;10.09;55.99;98912.16;4968106;28;124095;-73
2023/01/12 06:01:26;;;;;;;7.13;2.10;;;9.70;91.20;;;10.08;55.70;98907.78;4964088;28;124338;-72
2023/01/12 06:03:56;;;;;;;5.57;2.00;;;9.70;91.10;;;10.09;55.82;98903.88;4987546;28;114304;-72
2023/01/12 06:06:25;;;;;;;9.80;2.13;;;9.70;91.20;;;10.10;55.76;98900.00;4965952;28;114169;-73
2023/01/12 06:08:52;;;;;;;8.43;2.20;;;9.70;91.20;;;10.11;56.15;98904.41;4980162;28;124038;-73
2023/01/12 06:14:06;;;;;;;4.20;1.70;;;9.70;91.20;;;10.11;56.04;98890.59;4982387;28;114842;-73
2023/01/12 06:16:35;;;;;;;10.80;2.23;;;9.70;91.10;;;10.13;56.05;98890.28;4969125;28;113750;-72
2023/01/12 06:19:02;;;;;;;4.93;1.63;;;9.80;91.20;;;10.16;56.11;98884.16;4953195;28;124579;-74
2023/01/12 06:21:31;;;;;;;10.33;2.13;;;9.70;91.20;;;10.18;56.01;98877.19;4966644;28;123436;-74
2023/01/12 06:23:58;;;;;;;8.90;2.17;;;9.80;91.20;;;10.21;55.87;98875.78;4950497;28;113446;-74
2023/01/12 06:26:25;;;;;;;5.40;1.90;;;9.80;91.20;;;10.25;56.10;98862.16;4955738;28;113903;-73
2023/01/12 06:28:51;;;;;;;8.40;2.43;;;10.00;90.80;;;10.26;56.14;98866.53;4953703;28;124091;-74
2023/01/12 06:31:18;;;;;;;6.53;1.77;;;9.80;91.20;;;10.28;55.89;98850.53;4951856;28;123895;-74
2023/01/12 06:33:45;;;;;;;6.00;1.97;;;9.80;91.10;;;10.29;55.64;98855.75;4959451;28;113970;-74
2023/01/12 06:36:11;;;;;;;11.03;1.90;;;9.80;91.20;;;10.29;55.58;98852.97;4964630;28;114178;-74
2023/01/12 06:38:38;;;;;;;7.00;1.87;;;10.40;90.90;;;10.29;55.91;98844.69;4968199;28;124152;-74
2023/01/12 06:42:27;;;;;;;4.60;1.90;;;9.90;91.10;;;10.28;55.60;98850.53;4966819;28;123937;-74
2023/01/12 06:43:56;;;;;;;8.27;2.03;;;9.90;91.10;;;10.26;55.81;98844.44;4963126;28;115048;-74
2023/01/12 06:46:22;;;;;;;5.03;2.17;;;9.80;91.10;;;10.26;56.02;98852.72;4954380;28;114035;-74
2023/01/12 06:48:49;;;;;;;7.40;1.63;;;9.80;91.10;;;10.26;55.83;98859.09;4967708;28;123237;-74
2023/01/12 06:51:15;;;;;;;5.80;1.90;;;10.60;91.00;;;10.27;56.00;98851.63;4967947;28;123731;-74
2023/01/12 06:53:42;;;;;;;5.13;2.53;;;10.40;91.00;;;10.29;55.76;98868.72;4987075;28;114961;-73
2023/01/12 06:56:08;;;;;;;4.60;2.00;;;9.80;91.20;;;10.30;55.71;98881.41;4968918;28;113977;-75
2023/01/12 06:58:35;;;;;;;4.63;2.17;;;9.80;91.20;;;10.30;55.62;98873.94;5003499;28;124082;-75
2023/01/12 07:01:03;;;;;;;3.27;1.70;;;10.00;90.80;;;10.31;56.14;98872.81;4969909;28;123121;-74
2023/01/12 07:03:29;;;;;;;7.03;2.17;;;9.90;91.20;;;10.28;55.42;98864.31;4974133;28;113504;-74
2023/01/12 07:06:00;;;;;;;5.13;1.90;;;10.00;90.70;;;10.29;55.67;98858.50;4966586;28;113193;-74
2023/01/12 07:08:27;;;;;;;6.90;1.73;;;9.80;91.10;;;10.32;56.02;98862.59;4965623;28;124685;-74
2023/01/12 07:10:56;;;;;;;6.60;1.57;;;9.90;91.20;;;10.33;55.74;98858.69;4967651;28;123838;-80
2023/01/12 07:13:22;;;;;;;7.97;2.30;;;9.90;91.20;;;10.33;55.89;98845.69;4970845;28;114637;-73
2023/01/12 07:15:49;;;;;;;7.37;2.67;;;9.90;91.20;;;10.33;55.60;98840.19;4968907;28;114236;-74
2023/01/12 07:18:16;;;;;;;7.50;2.10;;;9.90;91.20;;;10.35;55.63;98845.41;4970818;28;124187;-74
2023/01/12 07:20:43;;;;;;;10.60;2.03;;;9.90;91.20;;;10.34;56.16;98843.75;4968251;28;123456;-73
2023/01/12 07:23:09;;;;;;;11.90;2.17;;;9.90;91.20;;;10.34;55.67;98846.50;4968223;28;114826;-74
2023/01/12 07:25:36;;;;;;;5.50;2.03;;;9.90;91.10;;;10.31;55.94;98855.41;4964092;28;114049;-77
2023/01/12 07:28:02;;;;;;;11.13;2.00;;;9.90;91.10;;;10.32;55.59;98843.25;4969292;28;124142;-74
2023/01/12 07:30:29;;;;;;;9.40;2.67;;;9.90;91.10;;;10.33;55.31;98853.19;4970727;28;125111;-74
2023/01/12 07:33:11;;;;;;;6.80;2.13;;;9.80;91.10;;;10.33;55.56;98875.28;4967789;28;116012;-79
2023/01/12 07:35:40;;;;;;;6.17;1.70;;;9.80;91.00;;;10.34;55.74;98865.84;4974460;28;114664;-79
2023/01/12 07:38:07;;;;;;;7.23;1.93;;;9.90;91.00;;;10.34;55.04;98854.78;4945217;28;123245;-76
2023/01/12 07:40:33;;;;;;;10.17;2.23;;;10.20;90.60;;;10.35;55.16;98845.41;4960630;28;124072;-74
2023/01/12 07:43:02;;;;;;;10.43;2.57;;;9.90;90.80;;;10.37;55.53;98862.50;4965684;28;114112;-74
2023/01/12 07:45:29;;;;;;;5.47;1.83;;;9.90;90.80;;;10.39;55.06;98862.97;4966979;28;114059;-74
2023/01/12 07:47:56;;;;;;;4.97;1.67;;;10.00;90.40;;;10.40;55.42;98864.63;4966979;28;124603;-75
2023/01/12 07:50:25;;;;;;;9.50;2.20;;;10.10;90.40;;;10.41;54.98;98863.50;4967161;28;123681;-75
2023/01/12 07:52:53;;;;;;;3.73;1.80;;;10.00;90.20;;;10.45;54.87;98864.53;4962577;28;115664;-78
2023/01/12 07:55:20;;;;;;;9.97;2.77;;;10.00;90.20;;;10.50;54.75;98866.31;4979900;28;114611;-76
2023/01/12 07:57:57;;;;;;;2.77;1.30;;;10.00;90.20;;;10.54;54.87;98857.13;4963133;28;124116;-76
2023/01/12 08:00:26;;;;;;;8.67;2.20;;;10.10;90.20;;;10.58;54.50;98862.81;4959570;28;124797;-76
2023/01/12 08:03:03;;;;;;;5.33;1.80;;;10.10;90.20;;;10.64;54.76;98849.72;4959973;28;114977;-75
2023/01/12 08:05:29;;;;;;;3.90;1.60;;;10.20;90.20;;;10.65;54.73;98845.84;4966266;28;113564;-75
2023/01/12 08:07:58;;;;;;;10.70;2.10;;;10.20;90.20;;;10.67;54.23;98852.69;4965251;28;124025;-75
2023/01/12 08:10:24;;;;;;;5.50;1.70;;;10.20;90.10;;;10.73;54.30;98845.09;4954781;28;123868;-75
2023/01/12 08:12:51;;;;;;;5.03;1.73;;;10.30;90.10;;;10.76;54.16;98847.22;4968308;28;114302;-75
2023/01/12 08:15:18;;;;;;;4.37;1.70;;;10.30;90.00;;;10.79;53.83;98852.94;4969322;28;113996;-76
2023/01/12 08:18:01;;;;;;;3.43;1.67;;;10.30;90.00;;;10.82;54.20;98851.50;4968475;28;123984;-77
2023/01/12 08:20:33;;;;;;;6.60;1.90;;;10.30;89.90;;;10.82;53.84;98854.25;4967013;28;123624;-77
2023/01/12 08:23:15;;;;;;;8.13;2.00;;;10.30;89.80;;;10.81;53.77;98852.63;4952282;28;114474;-77
2023/01/12 08:25:45;;;;;;;6.13;2.07;;;10.30;89.60;;;10.80;53.55;98857.34;4964521;28;114489;-77
2023/01/12 08:28:18;;;;;;;5.93;1.70;;;10.30;89.50;;;10.81;53.58;98861.75;4960320;28;123876;-75
2023/01/12 08:30:47;;;;;;;7.80;2.60;;;10.40;89.70;;;10.82;54.06;98859.78;4968676;28;123951;-77
2023/01/12 08:33:15;;;;;;;5.13;2.27;;;10.30;89.50;;;10.83;53.48;98853.16;4967837;28;114087;-75
2023/01/12 08:35:42;;;;;;;4.17;1.80;;;10.40;89.60;;;10.85;53.69;98850.88;4962950;28;114052;-75
2023/01/12 08:38:09;;;;;;;3.70;1.50;;;10.40;89.50;;;10.86;53.58;98869.09;4965622;28;123843;-75
2023/01/12 08:46:08;;;;;;;5.70;1.60;;;10.40;89.20;;;10.84;53.46;98852.00;4963722;28;114482;-77
2023/01/12 08:48:36;;;;;;;5.53;1.63;;;10.40;89.30;;;10.86;53.64;98869.09;4965153;28;122093;-77
2023/01/12 08:51:05;;;;;;;7.40;1.90;;;10.50;89.60;;;10.88;53.60;98858.56;4965481;28;123835;-76
2023/01/12 08:53:31;;;;;;;4.40;1.60;;;10.40;89.40;;;10.89;53.87;98864.91;4965865;28;114054;-76
2023/01/12 08:55:58;;;;;;;8.17;1.90;;;10.40;89.40;;;10.91;53.59;98859.84;4970361;28;113311;-76
2023/01/12 08:58:24;;;;;;;4.40;1.40;;;10.40;89.40;;;10.91;53.26;98852.41;4971528;28;123825;-75
2023/01/12 09:00:51;;;;;;;7.37;1.93;;;10.40;89.20;;;10.92;53.83;98854.03;4971880;28;124292;-76
2023/01/12 09:03:17;;;;;;;9.33;1.93;;;10.40;89.20;;;10.93;53.88;98850.13;4971080;28;114240;-76
2023/01/12 09:05:44;;;;;;;3.50;1.70;;;10.40;89.40;;;10.95;53.66;98856.16;4971065;28;114055;-75
2023/01/12 09:08:11;;;;;;;3.67;1.53;;;10.50;89.50;;;10.94;53.59;98849.00;4969506;28;124165;-75
2023/01/12 09:10:37;;;;;;;7.60;1.57;;;10.60;89.50;;;10.96;53.88;98854.19;4971812;28;121743;-76
2023/01/12 09:13:04;;;;;;;3.40;2.13;;;10.50;89.40;;;10.95;53.57;98858.91;4970099;28;115014;-75
2023/01/12 09:15:30;;;;;;;10.60;2.63;;;10.40;89.30;;;10.96;53.96;98859.72;4971597;28;114556;-75
2023/01/12 09:17:57;;;;;;;3.40;1.40;;;10.50;89.40;;;10.92;53.59;98856.78;4971023;28;123959;-75
2023/01/12 09:20:23;;;;;;;6.03;1.63;;;10.50;90.00;;;10.91;53.80;98863.47;4971702;28;122780;-75
2023/01/12 09:22:50;;;;;;;4.60;1.93;;;10.80;89.70;;;10.90;53.72;98872.84;4968860;28;114832;-74
2023/01/12 09:25:16;;;;;;;7.40;2.40;;;10.40;89.60;;;10.91;53.68;98874.50;4970162;28;113984;-75
2023/01/12 09:27:43;;;;;;;7.20;2.07;;;10.60;89.60;;;10.91;53.99;98880.03;4956134;28;124131;-75
2023/01/12 09:30:10;;;;;;;4.90;2.00;;;10.50;89.60;;;10.90;54.21;98891.41;4969830;28;124501;-75
2023/01/12 09:32:36;;;;;;;4.80;2.17;;;10.50;89.60;;;10.90;54.32;98878.38;4961232;28;114109;-76
2023/01/12 09:35:03;;;;;;;7.30;1.80;;;10.40;89.60;;;10.91;53.85;98891.09;4964276;28;113610;-75
2023/01/12 09:37:30;;;;;;;6.90;1.60;;;10.40;89.70;;;10.91;54.25;98877.28;4965852;28;124290;-75
2023/01/12 09:39:56;;;;;;;10.37;2.03;;;10.50;89.90;;;10.93;54.31;98894.34;4967659;28;123613;-77
2023/01/12 09:48:13;;;;;;;6.30;1.70;;;10.50;90.00;;;10.93;54.63;98885.25;4971164;28;124746;-75
2023/01/12 09:50:53;;;;;;;6.10;2.10;;;10.60;90.10;;;10.96;54.46;98870.78;4969881;28;123674;-76
2023/01/12 09:53:26;;;;;;;4.03;1.87;;;10.70;90.20;;;10.96;54.44;98874.41;4968822;28;114123;-75
2023/01/12 09:56:28;;;;;;;5.50;2.07;;;10.50;90.10;;;10.97;54.90;98864.97;4972805;28;114539;-75
2023/01/12 09:59:10;;;;;;;7.93;1.90;;;10.50;90.20;;;10.98;54.77;98863.81;4969459;28;124010;-75
2023/01/12 10:01:37;;;;;;;5.33;1.73;;;10.50;90.20;;;10.98;54.57;98858.28;4968960;28;123898;-75
2023/01/12 10:04:05;;;;;;;7.33;2.60;;;10.60;90.20;;;11.01;55.05;98873.44;4968422;28;115153;-76
2023/01/12 10:06:33;;;;;;;7.90;1.83;;;10.60;90.20;;;11.02;54.47;98830.84;4968665;28;113782;-75
2023/01/12 10:09:03;;;;;;;5.40;1.60;;;10.60;90.10;;;11.06;54.75;98849.25;4968253;28;123849;-75
2023/01/12 10:11:53;;;;;;;2.03;1.50;;;10.60;90.20;;;11.11;54.63;98825.38;4968460;28;124093;-75
2023/01/12 10:14:31;;;;;;;4.33;1.70;;;10.60;90.10;;;11.15;54.59;98823.59;4954696;28;113382;-74
2023/01/12 10:17:06;;;;;;;5.70;1.77;;;10.70;90.10;;;11.20;54.10;98826.22;4969529;28;113926;-75
2023/01/12 10:19:42;;;;;;;6.00;1.53;;;10.70;90.20;;;11.20;54.05;98813.25;4967189;28;123792;-75
2023/01/12 10:22:36;;;;;;;4.30;1.63;;;10.80;90.10;;;11.24;54.34;98814.22;4961071;28;123773;-74
2023/01/12 10:25:29;;;;;;;5.83;1.90;;;10.80;90.10;;;11.27;54.20;98810.81;4967401;28;114355;-74
2023/01/12 10:27:58;;;;;;;3.23;1.60;;;10.80;90.00;;;11.31;54.31;98808.25;4965328;28;114051;-75
2023/01/12 10:30:39;;;;;;;5.17;2.10;;;10.80;90.00;;;11.37;53.98;98804.22;4967128;28;123937;-75
2023/01/12 10:33:17;;;;;;;4.70;1.67;;;11.10;90.00;;;11.40;53.98;98814.66;4969652;28;123657;-76
2023/01/12 10:36:16;;;;;;;5.30;1.47;;;10.90;89.70;;;11.42;53.61;98811.56;4969140;28;114434;-76
2023/01/12 10:38:55;;;;;;;3.20;1.30;;;10.90;89.60;;;11.46;53.44;98812.56;4967829;28;113929;-75
2023/01/12 10:41:25;;;;;;;2.87;1.40;;;11.10;89.70;;;11.48;53.20;98824.13;4971608;28;123892;-75
2023/01/12 10:43:57;;;;;;;2.50;1.40;;;11.00;89.40;;;11.49;53.42;98812.72;5003387;28;123313;-74
2023/01/12 10:46:27;;;;;;;6.80;1.57;;;11.00;89.40;;;11.50;53.44;98819.91;4968651;28;114827;-75
2023/01/12 10:49:18;;;;;;;5.43;1.60;;;11.10;89.40;;;11.52;53.52;98824.28;4964414;28;113393;-75
2023/01/12 10:51:47;;;;;;;8.20;1.70;;;11.10;89.30;;;11.53;53.43;98848.09;4958352;28;124085;-76
2023/01/12 10:54:22;;;;;;;2.50;1.60;;;11.10;89.20;;;11.54;53.25;98816.50;4967951;28;123869;-75
2023/01/12 10:57:22;;;;;;;5.27;1.40;;;11.10;89.10;;;11.54;53.22;98786.88;4950345;28;114226;-75
2023/01/12 10:59:58;;;;;;;4.00;1.73;;;11.10;89.00;;;11.57;53.37;98804.78;4962614;28;114889;-75
2023/01/12 11:02:28;;;;;;;6.20;1.60;;;11.10;89.00;;;11.59;53.49;98797.81;4968331;28;124080;-75
2023/01/12 11:04:54;;;;;;;5.03;1.60;;;11.20;89.10;;;11.62;52.95;98788.06;4949521;28;123185;-75
2023/01/12 11:07:27;;;;;;;3.60;1.60;;;11.20;88.80;;;11.64;52.80;98785.78;4967490;28;114237;-74
2023/01/12 11:10:19;;;;;;;2.40;1.40;;;11.30;88.90;;;11.66;52.61;98777.97;4982904;28;114119;-75
2023/01/12 11:13:02;;;;;;;4.70;1.60;;;11.20;88.70;;;11.66;52.92;98773.25;4953387;28;122880;-76
2023/01/12 11:15:34;;;;;;;2.80;1.50;;;11.20;88.60;;;11.68;52.49;98775.69;4961023;28;123812;-76